Time;durP1;ratioP1;P1;durP2;ratioP2;P2;SDS_P1;SDS_P2;PMS_P1;PMS_P2;Temp;Humidity;BMP_temperature;BMP_pressure;BME280_temperature;BME280_humidity;BME280_pressure;Samples;Min_cycle;Max_cycle;Signal;HPM_P1;HPM_P2
2023/07/09 00:00:20;;;;;;;10.80;8.20;;;;;;;15.53;77.24;99258.31;137163;1274;22394;-84
2023/07/09 00:03:41;;;;;;;11.70;8.50;;;;;;;15.47;77.45;99259.55;136890;1274;22185;-86
2023/07/09 00:06:42;;;;;;;9.40;7.80;;;;;;;15.38;77.53;99256.75;136893;1274;22638;-85
2023/07/09 00:09:43;;;;;;;8.60;7.70;;;;;;;15.35;77.88;99262.89;137260;1274;22621;-84
2023/07/09 00:12:44;;;;;;;9.10;8.10;;;;;;;15.30;77.87;99260.09;136872;1274;22695;-84
2023/07/09 00:15:45;;;;;;;13.30;8.00;;;;;;;15.23;78.19;99261.14;136814;1274;22211;-85
2023/07/09 00:18:48;;;;;;;9.60;7.80;;;;;;;15.18;78.21;99258.86;137205;1274;22521;-85
2023/07/09 00:21:52;;;;;;;8.30;7.20;;;;;;;15.14;78.42;99251.67;137174;1274;22756;-85
2023/07/09 00:24:56;;;;;;;9.40;7.90;;;;;;;15.13;78.33;99253.95;136979;1272;22193;-85
2023/07/09 00:27:58;;;;;;;9.60;7.70;;;;;;;15.14;78.08;99249.23;136876;1274;24193;-85
2023/07/09 00:30:59;;;;;;;10.70;7.40;;;;;;;15.15;77.83;99250.45;137405;1274;22451;-85
2023/07/09 00:34:00;;;;;;;11.00;8.40;;;;;;;15.16;77.60;99252.55;136906;1274;22357;-85
2023/07/09 00:37:01;;;;;;;13.90;8.50;;;;;;;15.17;77.24;99255.19;136844;1274;22548;-85
2023/07/09 00:40:03;;;;;;;9.50;7.60;;;;;;;15.19;76.94;99257.11;137416;1275;22212;-85
2023/07/09 00:43:04;;;;;;;9.40;7.30;;;;;;;15.18;76.56;99256.94;136869;1263;22371;-83
2023/07/09 00:46:05;;;;;;;8.70;7.40;;;;;;;15.16;76.47;99257.46;136807;1274;22532;-83
2023/07/09 00:49:06;;;;;;;9.60;7.10;;;;;;;15.11;76.28;99253.27;137303;1274;22560;-84
2023/07/09 00:52:09;;;;;;;11.80;7.80;;;;;;;15.06;76.46;99252.38;136917;1274;22395;-84
2023/07/09 00:55:10;;;;;;;11.20;8.10;;;;;;;15.07;76.50;99250.45;136834;1274;22564;-84
2023/07/09 00:58:11;;;;;;;9.90;7.90;;;;;;;15.03;76.37;99250.45;137173;1274;24202;-85
2023/07/09 01:01:12;;;;;;;10.00;8.00;;;;;;;14.99;76.59;99250.27;137063;1274;22551;-84
2023/07/09 01:04:16;;;;;;;10.80;8.40;;;;;;;14.94;76.56;99248.16;136833;1274;22563;-84
2023/07/09 01:07:19;;;;;;;9.50;8.60;;;;;;;14.86;76.83;99244.65;136917;1274;22486;-84
2023/07/09 01:10:20;;;;;;;10.70;7.80;;;;;;;14.79;77.16;99241.14;137141;1274;22702;-84
2023/07/09 01:13:21;;;;;;;13.00;8.50;;;;;;;14.75;77.58;99239.90;136880;1274;22186;-84
2023/07/09 01:16:23;;;;;;;11.20;7.90;;;;;;;14.68;77.87;99241.27;136774;1274;22201;-84
2023/07/09 01:19:25;;;;;;;10.40;8.40;;;;;;;14.59;78.05;99243.00;137478;1274;22179;-85
2023/07/09 01:22:27;;;;;;;8.80;7.90;;;;;;;14.54;78.57;99241.23;136728;1274;22231;-86
2023/07/09 01:25:28;;;;;;;8.60;7.70;;;;;;;14.49;78.70;99246.31;136859;1274;22280;-85
2023/07/09 01:28:29;;;;;;;8.90;7.80;;;;;;;14.47;78.89;99251.21;137277;1274;22533;-86
2023/07/09 01:31:30;;;;;;;9.30;8.10;;;;;;;14.44;79.12;99242.62;136977;1274;22346;-85
2023/07/09 01:34:31;;;;;;;9.30;7.80;;;;;;;14.39;79.51;99243.10;136905;1274;22628;-84
2023/07/09 01:37:33;;;;;;;9.50;7.80;;;;;;;14.29;79.79;99247.98;137062;1274;22553;-86
2023/07/09 01:40:34;;;;;;;8.90;7.60;;;;;;;14.23;80.35;99242.52;137144;1274;22302;-84
2023/07/09 01:43:36;;;;;;;9.40;7.80;;;;;;;14.15;80.60;99238.98;136822;1274;22788;-85
2023/07/09 01:46:37;;;;;;;8.60;7.70;;;;;;;14.08;80.99;99239.14;136888;1274;22536;-84
2023/07/09 01:49:39;;;;;;;8.30;7.50;;;;;;;14.00;81.46;99246.64;137303;1274;22182;-85
2023/07/09 01:52:41;;;;;;;12.00;8.20;;;;;;;13.97;81.77;99249.42;136960;1261;22739;-85
2023/07/09 01:55:42;;;;;;;9.90;8.90;;;;;;;13.98;81.93;99248.90;136928;1275;22212;-85
2023/07/09 01:58:43;;;;;;;9.30;7.80;;;;;;;13.96;82.01;99254.31;137333;1274;22202;-85
2023/07/09 02:01:45;;;;;;;8.90;8.10;;;;;;;13.91;82.13;99254.45;136829;1274;22180;-84
2023/07/09 02:04:46;;;;;;;8.80;7.70;;;;;;;13.84;82.39;99258.08;136965;1274;22215;-85
2023/07/09 02:07:47;;;;;;;8.90;8.00;;;;;;;13.79;82.87;99256.29;137342;1274;22230;-86
2023/07/09 02:10:48;;;;;;;9.30;8.20;;;;;;;13.77;82.92;99258.90;137048;1274;22251;-85
2023/07/09 02:13:49;;;;;;;10.10;8.10;;;;;;;13.73;82.93;99260.28;136871;1274;22203;-84
2023/07/09 02:16:50;;;;;;;9.20;7.90;;;;;;;13.67;82.97;99262.00;137167;1274;22559;-83
2023/07/09 02:19:51;;;;;;;9.10;8.30;;;;;;;13.62;83.17;99262.14;136784;1274;22548;-84
2023/07/09 02:22:52;;;;;;;9.10;8.00;;;;;;;13.56;83.44;99261.05;136541;1275;22193;-83
2023/07/09 02:25:53;;;;;;;38.50;29.80;;;;;;;13.50;83.67;99259.09;137268;1274;22240;-84
2023/07/09 02:28:54;;;;;;;11.40;10.20;;;;;;;13.45;84.13;99265.00;136893;1275;22528;-83
2023/07/09 02:31:58;;;;;;;9.90;8.80;;;;;;;13.42;84.52;99268.30;137250;1275;25435;-81
2023/07/09 02:34:59;;;;;;;9.40;8.40;;;;;;;13.41;85.15;99272.31;137390;1275;22620;-83
2023/07/09 02:38:00;;;;;;;8.80;7.80;;;;;;;13.43;85.73;99270.58;137004;1274;22529;-83
2023/07/09 02:41:01;;;;;;;9.50;8.40;;;;;;;13.40;85.77;99272.13;137126;1275;22194;-83
2023/07/09 02:44:02;;;;;;;10.90;7.90;;;;;;;13.36;85.92;99272.10;137481;1274;22321;-84
2023/07/09 02:47:04;;;;;;;11.60;7.90;;;;;;;13.33;85.58;99275.92;137075;1274;22562;-82
2023/07/09 02:50:05;;;;;;;11.50;8.20;;;;;;;13.34;85.68;99275.59;137193;1273;22436;-83
2023/07/09 02:53:06;;;;;;;10.50;9.00;;;;;;;13.35;85.65;99272.80;137325;1274;22634;-84
2023/07/09 02:56:07;;;;;;;12.50;8.90;;;;;;;13.34;85.73;99273.48;137161;1273;22106;-83
2023/07/09 02:59:08;;;;;;;15.50;11.30;;;;;;;13.33;85.78;99272.96;137091;1273;22547;-82
2023/07/09 03:02:09;;;;;;;11.80;8.80;;;;;;;13.33;85.79;99270.86;137432;1270;22625;-83
2023/07/09 03:05:10;;;;;;;9.80;8.30;;;;;;;13.36;85.79;99269.48;137153;1273;22587;-84
2023/07/09 03:08:11;;;;;;;8.90;7.70;;;;;;;13.45;86.24;99268.31;136932;1270;22536;-85
2023/07/09 03:11:12;;;;;;;9.70;8.70;;;;;;;13.52;86.02;99267.32;137268;1274;22140;-84
2023/07/09 03:14:13;;;;;;;10.60;8.50;;;;;;;13.55;86.01;99272.23;137120;1273;22301;-83
2023/07/09 03:17:14;;;;;;;9.00;8.00;;;;;;;13.58;85.92;99274.70;137047;1273;22211;-84
2023/07/09 03:20:15;;;;;;;9.00;8.10;;;;;;;13.63;85.76;99274.39;137197;1262;22538;-85
2023/07/09 03:23:17;;;;;;;11.30;8.10;;;;;;;13.68;85.74;99275.12;137345;1273;22209;-84
2023/07/09 03:26:18;;;;;;;8.90;7.40;;;;;;;13.74;85.88;99272.36;137100;1273;22203;-83
2023/07/09 03:29:19;;;;;;;11.00;8.30;;;;;;;13.78;85.93;99273.95;137113;1273;22908;-83
2023/07/09 03:32:20;;;;;;;9.30;7.90;;;;;;;13.84;85.74;99275.56;137221;1273;22217;-85
2023/07/09 03:35:25;;;;;;;11.40;7.80;;;;;;;13.88;85.47;99274.58;136431;1273;22588;-85
2023/07/09 03:38:26;;;;;;;8.60;7.80;;;;;;;13.93;85.27;99279.14;136314;1273;25908;-86
2023/07/09 03:41:27;;;;;;;10.60;8.60;;;;;;;14.01;85.28;99276.04;136605;1273;22393;-85
2023/07/09 03:44:28;;;;;;;36.20;23.30;;;;;;;14.11;85.47;99271.52;137018;1273;22573;-84
2023/07/09 03:47:29;;;;;;;11.60;8.90;;;;;;;14.20;85.38;99272.44;136359;1273;22555;-85
2023/07/09 03:50:30;;;;;;;9.30;8.40;;;;;;;14.30;85.17;99277.04;136741;1273;22563;-84
2023/07/09 03:53:31;;;;;;;10.20;7.70;;;;;;;14.44;85.10;99273.77;137444;1273;22626;-84
2023/07/09 03:56:32;;;;;;;8.80;7.90;;;;;;;14.59;84.84;99271.90;137310;1273;22297;-83
2023/07/09 03:59:33;;;;;;;8.60;7.70;;;;;;;14.74;84.52;99274.41;136550;1273;22585;-84
2023/07/09 04:02:34;;;;;;;10.50;7.90;;;;;;;14.86;84.55;99276.19;136471;1273;22523;-85
2023/07/09 04:05:37;;;;;;;9.80;8.20;;;;;;;14.99;84.36;99277.27;136703;1273;22240;-84
2023/07/09 04:08:39;;;;;;;10.40;8.20;;;;;;;15.13;83.69;99276.92;137524;1274;22240;-84
2023/07/09 04:11:40;;;;;;;11.40;8.50;;;;;;;15.30;83.04;99279.55;137148;1273;22284;-84
2023/07/09 04:14:41;;;;;;;11.50;8.60;;;;;;;15.46;82.29;99283.04;136701;1273;22546;-84
2023/07/09 04:17:42;;;;;;;15.10;8.20;;;;;;;15.73;82.33;99284.48;136855;1273;22206;-85
2023/07/09 04:20:43;;;;;;;13.00;8.30;;;;;;;16.03;81.52;99287.39;137053;1273;22189;-84
2023/07/09 04:23:44;;;;;;;11.40;7.70;;;;;;;16.32;80.89;99281.84;137208;1273;22547;-85
2023/07/09 04:26:45;;;;;;;12.00;7.70;;;;;;;16.61;80.69;99282.44;137373;1273;22210;-85
2023/07/09 04:29:46;;;;;;;11.20;7.30;;;;;;;16.82;79.90;99283.91;136958;1274;22327;-84
2023/07/09 04:32:47;;;;;;;10.30;7.90;;;;;;;17.06;79.37;99287.09;137158;1273;22534;-83
2023/07/09 04:35:48;;;;;;;12.10;8.40;;;;;;;17.31;78.59;99289.90;137467;1273;22086;-84
2023/07/09 04:38:49;;;;;;;9.20;7.70;;;;;;;17.61;78.20;99287.55;137264;1274;22277;-82
2023/07/09 04:41:50;;;;;;;11.70;7.40;;;;;;;17.92;76.80;99286.56;137179;1274;22538;-83
2023/07/09 04:44:51;;;;;;;11.40;8.20;;;;;;;18.20;75.13;99285.91;137244;1273;22224;-83
2023/07/09 04:47:53;;;;;;;14.00;8.40;;;;;;;18.44;74.19;99285.80;136642;1274;22481;-84
2023/07/09 04:50:54;;;;;;;9.40;7.10;;;;;;;18.71;73.63;99282.80;136845;1260;22528;-83
2023/07/09 04:53:55;;;;;;;10.10;7.10;;;;;;;18.96;71.55;99286.51;136951;1273;22604;-84
2023/07/09 04:56:56;;;;;;;8.60;7.00;;;;;;;19.25;70.20;99282.22;137348;1273;22418;-83
2023/07/09 04:59:57;;;;;;;15.60;7.90;;;;;;;19.56;67.63;99285.41;137270;1273;22287;-82
2023/07/09 05:02:58;;;;;;;11.90;7.40;;;;;;;19.89;66.21;99283.60;137370;1270;22751;-84
2023/07/09 05:05:59;;;;;;;17.20;7.50;;;;;;;20.17;66.09;99286.25;137110;1273;22740;-84
2023/07/09 05:09:00;;;;;;;13.30;7.60;;;;;;;20.46;63.79;99290.27;137404;1265;22251;-82
2023/07/09 05:12:01;;;;;;;12.40;7.00;;;;;;;20.78;62.26;99288.89;137344;1273;22567;-83
2023/07/09 05:15:02;;;;;;;10.70;6.80;;;;;;;21.01;60.39;99298.30;137435;1273;22777;-82
2023/07/09 05:18:03;;;;;;;9.70;7.20;;;;;;;21.16;59.47;99299.88;137442;1274;22240;-83
2023/07/09 05:21:04;;;;;;;11.10;6.70;;;;;;;21.30;60.25;99299.40;137440;1273;22683;-83
2023/07/09 05:24:05;;;;;;;9.50;7.00;;;;;;;21.45;60.14;99301.85;137253;1274;22610;-82
2023/07/09 05:27:06;;;;;;;10.00;7.50;;;;;;;21.66;60.61;99298.16;137529;1273;22388;-82
2023/07/09 05:30:07;;;;;;;11.60;7.10;;;;;;;21.84;58.98;99297.16;137478;1273;22695;-83
2023/07/09 05:33:08;;;;;;;11.00;6.70;;;;;;;21.94;57.63;99293.89;137568;1273;22203;-83
2023/07/09 05:36:13;;;;;;;10.90;7.00;;;;;;;22.00;55.92;99293.55;137322;1273;22212;-83
2023/07/09 05:39:14;;;;;;;11.50;6.80;;;;;;;22.09;55.47;99303.25;137321;1273;22146;-82
2023/07/09 05:42:15;;;;;;;7.80;7.00;;;;;;;22.24;55.13;99304.23;137336;1273;22233;-83
2023/07/09 05:45:16;;;;;;;11.00;7.70;;;;;;;22.40;54.08;99307.16;137443;1273;22172;-82
2023/07/09 05:48:17;;;;;;;7.60;6.70;;;;;;;22.48;52.41;99304.09;137457;1273;22656;-83
2023/07/09 05:51:19;;;;;;;6.90;6.20;;;;;;;22.46;51.49;99309.66;137315;1273;22229;-82
2023/07/09 05:54:22;;;;;;;6.70;6.00;;;;;;;22.48;52.08;99310.65;137389;1273;22560;-82
2023/07/09 05:57:23;;;;;;;6.80;6.10;;;;;;;22.66;52.21;99307.52;137278;1273;22397;-82
2023/07/09 06:00:24;;;;;;;9.90;7.10;;;;;;;22.84;52.31;99308.58;137367;1273;22257;-82
2023/07/09 06:03:25;;;;;;;7.40;6.70;;;;;;;23.05;51.72;99313.09;137386;1274;22519;-83
2023/07/09 06:06:26;;;;;;;7.60;6.80;;;;;;;23.16;51.56;99314.51;137384;1273;22179;-82
2023/07/09 06:09:28;;;;;;;11.60;7.50;;;;;;;23.29;50.92;99319.95;137464;1273;22326;-83
2023/07/09 06:12:29;;;;;;;12.30;6.60;;;;;;;23.34;51.05;99317.84;137408;1273;22703;-83
2023/07/09 06:15:30;;;;;;;8.30;6.40;;;;;;;23.43;49.69;99321.81;137370;1273;22433;-83
2023/07/09 06:18:31;;;;;;;8.30;7.00;;;;;;;23.53;49.77;99322.92;137390;1273;22280;-83
2023/07/09 06:21:32;;;;;;;10.10;7.60;;;;;;;23.66;49.77;99320.56;137421;1266;22500;-83
2023/07/09 06:24:33;;;;;;;7.70;6.90;;;;;;;23.78;49.57;99318.37;137431;1273;22829;-82
2023/07/09 06:27:34;;;;;;;8.20;7.40;;;;;;;23.97;49.30;99316.64;137365;1273;22380;-83
2023/07/09 06:30:35;;;;;;;8.40;6.20;;;;;;;24.18;48.82;99314.30;137497;1273;22260;-83
2023/07/09 06:33:36;;;;;;;12.70;7.20;;;;;;;24.49;48.30;99314.66;137374;1273;22436;-83
2023/07/09 06:36:37;;;;;;;8.80;6.50;;;;;;;24.73;46.92;99318.89;137341;1273;22316;-83
2023/07/09 06:39:38;;;;;;;9.70;6.40;;;;;;;24.88;46.47;99315.29;137422;1273;22253;-82
2023/07/09 06:42:39;;;;;;;9.90;6.60;;;;;;;25.16;46.52;99312.05;137438;1273;22338;-82
2023/07/09 06:45:40;;;;;;;9.50;6.40;;;;;;;25.46;45.53;99309.44;137230;1273;22659;-83
2023/07/09 06:48:42;;;;;;;7.70;6.70;;;;;;;25.68;45.28;99307.63;137081;1270;22686;-83
2023/07/09 06:51:43;;;;;;;9.40;7.10;;;;;;;25.91;45.00;99312.02;136831;1273;22155;-83
2023/07/09 06:54:44;;;;;;;8.90;6.50;;;;;;;26.04;42.99;99311.67;137393;1273;22101;-83
2023/07/09 06:57:45;;;;;;;8.40;6.10;;;;;;;26.01;43.01;99311.42;137072;1268;22550;-83
2023/07/09 07:00:46;;;;;;;6.80;6.20;;;;;;;26.13;43.74;99307.52;137470;1273;22299;-82
2023/07/09 07:03:47;;;;;;;8.10;6.70;;;;;;;26.38;43.64;99308.38;137383;1273;22202;-82
2023/07/09 07:06:48;;;;;;;8.10;6.20;;;;;;;26.59;43.50;99311.01;137441;1273;22929;-84
2023/07/09 07:09:49;;;;;;;10.50;7.30;;;;;;;26.77;42.88;99311.23;137358;1273;22210;-84
2023/07/09 07:12:50;;;;;;;14.60;6.30;;;;;;;26.88;42.60;99310.02;137295;1273;22547;-83
2023/07/09 07:15:51;;;;;;;10.90;6.50;;;;;;;27.00;42.53;99309.49;137420;1273;22222;-82
2023/07/09 07:18:52;;;;;;;9.00;6.50;;;;;;;27.12;41.85;99308.92;137395;1273;22195;-84
2023/07/09 07:21:53;;;;;;;9.10;6.30;;;;;;;27.09;41.28;99310.32;137260;1274;22203;-83
2023/07/09 07:24:54;;;;;;;9.60;5.80;;;;;;;27.00;40.54;99311.63;137397;1274;22120;-82
2023/07/09 07:27:56;;;;;;;7.40;5.50;;;;;;;27.11;40.46;99308.08;137316;1266;197997;-83
2023/07/09 07:30:57;;;;;;;8.70;6.30;;;;;;;27.13;39.76;99315.13;137431;1273;22222;-83
2023/07/09 07:33:58;;;;;;;7.00;6.30;;;;;;;27.11;40.19;99309.67;137381;1273;22363;-82
2023/07/09 07:36:59;;;;;;;6.90;5.90;;;;;;;27.21;39.95;99311.34;137425;1273;22145;-83
2023/07/09 07:40:04;;;;;;;6.30;5.60;;;;;;;27.33;40.07;99314.33;137380;1273;22191;-84
2023/07/09 07:43:05;;;;;;;6.90;6.20;;;;;;;27.47;40.01;99311.99;137270;1273;22270;-84
2023/07/09 07:46:09;;;;;;;6.20;5.60;;;;;;;27.74;40.11;99306.42;137405;1273;23516;-83
2023/07/09 07:49:10;;;;;;;6.70;5.40;;;;;;;28.00;39.83;99303.30;137223;1273;22346;-83
2023/07/09 07:52:11;;;;;;;6.50;5.30;;;;;;;28.13;39.22;99304.04;137456;1273;22302;-83
2023/07/09 07:55:12;;;;;;;6.30;5.60;;;;;;;28.19;38.17;99309.23;137468;1273;22184;-84
2023/07/09 07:58:13;;;;;;;5.90;5.30;;;;;;;28.25;37.80;99307.91;137383;1273;22259;-82
2023/07/09 08:01:14;;;;;;;5.80;5.00;;;;;;;28.29;37.05;99313.23;137273;1273;22200;-84
2023/07/09 08:04:15;;;;;;;6.90;5.30;;;;;;;28.34;37.11;99309.58;137415;1273;22229;-83
2023/07/09 08:07:17;;;;;;;5.60;4.90;;;;;;;28.40;37.04;99311.94;137363;1273;22238;-83
2023/07/09 08:10:18;;;;;;;6.30;5.00;;;;;;;28.58;37.25;99313.45;137359;1273;22289;-84
2023/07/09 08:13:19;;;;;;;7.60;5.10;;;;;;;28.71;37.17;99306.67;137326;1273;22248;-83
2023/07/09 08:16:24;;;;;;;7.60;4.80;;;;;;;28.87;36.46;99303.32;137372;1273;22683;-85
2023/07/09 08:19:25;;;;;;;5.50;5.00;;;;;;;29.10;36.13;99301.46;137350;1273;22365;-83
2023/07/09 08:22:27;;;;;;;9.40;4.70;;;;;;;29.37;35.89;99302.80;137316;1273;22320;-84
2023/07/09 08:25:30;;;;;;;4.50;4.10;;;;;;;29.76;35.09;99297.87;137428;1273;22170;-84
2023/07/09 08:28:31;;;;;;;5.20;4.20;;;;;;;29.96;34.50;99294.67;137465;1273;22295;-84
2023/07/09 08:31:32;;;;;;;6.60;4.20;;;;;;;30.18;33.84;99294.27;137358;1273;22247;-83
2023/07/09 08:34:34;;;;;;;6.50;4.70;;;;;;;30.35;33.89;99289.81;137291;1273;22312;-81
2023/07/09 08:37:35;;;;;;;4.80;4.30;;;;;;;30.35;33.15;99294.33;137373;1273;22217;-83
2023/07/09 08:40:36;;;;;;;8.50;4.30;;;;;;;30.26;33.35;99293.45;137253;1273;23079;-84
2023/07/09 08:43:37;;;;;;;5.60;4.20;;;;;;;30.15;32.80;99289.44;137089;1273;22194;-84
2023/07/09 08:46:38;;;;;;;6.00;4.20;;;;;;;30.04;33.22;99284.52;137323;1273;22238;-84
2023/07/09 08:49:39;;;;;;;6.10;3.80;;;;;;;30.06;33.03;99284.98;137064;1273;22652;-84
2023/07/09 08:52:40;;;;;;;8.70;3.90;;;;;;;30.12;31.86;99291.64;136707;1273;22566;-85
2023/07/09 08:55:41;;;;;;;7.90;3.90;;;;;;;29.98;32.03;99288.86;136934;1273;22512;-84
2023/07/09 08:58:43;;;;;;;6.60;4.20;;;;;;;30.14;32.87;99286.11;136858;1273;22645;-82
2023/07/09 09:01:45;;;;;;;5.30;4.60;;;;;;;30.29;32.71;99283.21;136603;1273;22551;-84
2023/07/09 09:04:46;;;;;;;4.30;4.00;;;;;;;30.55;32.12;99283.20;137130;1273;22133;-86
2023/07/09 09:07:47;;;;;;;5.20;3.50;;;;;;;30.64;31.59;99279.98;137275;1273;22505;-85
2023/07/09 09:10:48;;;;;;;4.60;3.80;;;;;;;30.61;31.34;99278.39;137227;1273;22559;-84
2023/07/09 09:13:49;;;;;;;3.90;3.60;;;;;;;30.69;31.23;99277.66;137482;1258;22199;-86
2023/07/09 09:16:50;;;;;;;6.50;4.00;;;;;;;30.77;31.41;99273.36;137426;1273;22221;-85
2023/07/09 09:19:51;;;;;;;4.30;3.70;;;;;;;30.93;30.43;99276.85;137482;1273;22338;-84
2023/07/09 09:22:52;;;;;;;5.90;3.60;;;;;;;30.92;29.38;99279.27;137322;1273;22249;-85
2023/07/09 09:25:53;;;;;;;7.00;3.20;;;;;;;30.90;29.17;99273.05;137408;1273;22244;-86
2023/07/09 09:28:55;;;;;;;3.80;3.40;;;;;;;30.99;29.58;99274.66;137452;1273;22176;-86
2023/07/09 09:31:56;;;;;;;7.30;3.90;;;;;;;31.04;29.16;99272.73;137343;1266;22553;-86
2023/07/09 09:34:57;;;;;;;4.50;3.60;;;;;;;31.00;29.18;99276.39;137397;1273;22189;-86
2023/07/09 09:37:58;;;;;;;9.50;3.50;;;;;;;30.91;28.69;99278.04;137347;1273;22197;-86
2023/07/09 09:41:00;;;;;;;5.70;3.70;;;;;;;30.85;28.98;99273.38;137345;1273;22237;-85
2023/07/09 09:44:02;;;;;;;4.30;3.90;;;;;;;30.87;28.67;99275.62;137493;1273;22430;-83
2023/07/09 09:47:03;;;;;;;6.50;3.80;;;;;;;30.76;28.47;99280.99;137342;1273;22714;-85
2023/07/09 09:50:04;;;;;;;8.10;3.90;;;;;;;30.65;28.09;99278.80;137375;1273;22205;-85
2023/07/09 09:53:05;;;;;;;4.50;4.00;;;;;;;30.61;27.81;99277.31;137334;1273;23171;-86
2023/07/09 09:56:06;;;;;;;8.00;4.20;;;;;;;30.71;28.48;99276.28;137317;1273;23056;-85
2023/07/09 09:59:07;;;;;;;5.30;4.00;;;;;;;30.75;28.46;99281.27;137441;1269;22268;-85
2023/07/09 10:02:08;;;;;;;4.50;4.00;;;;;;;30.74;28.59;99279.88;137237;1267;22253;-86
2023/07/09 10:05:09;;;;;;;7.60;4.00;;;;;;;30.70;28.86;99276.88;137312;1273;22220;-84
2023/07/09 10:08:10;;;;;;;6.30;3.80;;;;;;;30.68;28.36;99277.37;137295;1273;22625;-84
2023/07/09 10:11:11;;;;;;;7.00;4.00;;;;;;;30.71;28.71;99274.31;137297;1273;22991;-83
2023/07/09 10:14:12;;;;;;;4.20;3.80;;;;;;;30.82;28.54;99275.40;137366;1273;22385;-84
2023/07/09 10:17:13;;;;;;;3.90;3.60;;;;;;;30.88;27.82;99274.64;137479;1273;22211;-84
2023/07/09 10:20:14;;;;;;;10.80;3.90;;;;;;;30.90;27.61;99275.45;137359;1273;22617;-86
2023/07/09 10:23:15;;;;;;;5.40;3.40;;;;;;;31.03;27.31;99278.91;137327;1273;22272;-84
2023/07/09 10:26:16;;;;;;;5.60;4.10;;;;;;;31.17;26.37;99276.92;137236;1273;22235;-86
2023/07/09 10:29:17;;;;;;;3.70;3.40;;;;;;;31.22;26.73;99282.16;137319;1273;22464;-84
2023/07/09 10:32:19;;;;;;;4.10;3.70;;;;;;;31.38;26.46;99274.51;137157;1273;22350;-86
2023/07/09 10:35:20;;;;;;;4.70;3.10;;;;;;;31.60;26.49;99271.91;137367;1273;22208;-85
2023/07/09 10:38:21;;;;;;;4.00;3.50;;;;;;;31.59;26.54;99271.06;137221;1273;22369;-85
2023/07/09 10:41:22;;;;;;;4.30;3.80;;;;;;;31.51;26.89;99274.27;137353;1273;22136;-85
2023/07/09 10:44:23;;;;;;;8.40;3.50;;;;;;;31.56;26.76;99272.48;137429;1273;22394;-84
2023/07/09 10:47:24;;;;;;;6.60;3.60;;;;;;;31.48;26.24;99271.61;137459;1273;22387;-84
2023/07/09 10:50:26;;;;;;;4.70;3.30;;;;;;;31.44;26.93;99273.34;137456;1273;22179;-84
2023/07/09 10:53:27;;;;;;;11.30;3.60;;;;;;;31.45;27.37;99269.48;137272;1273;22630;-84
2023/07/09 10:56:28;;;;;;;4.30;3.90;;;;;;;31.39;27.33;99273.51;137358;1273;22115;-85
2023/07/09 10:59:29;;;;;;;7.60;3.90;;;;;;;31.48;27.80;99275.23;137414;1273;22347;-84
2023/07/09 11:02:31;;;;;;;7.50;3.40;;;;;;;31.63;27.15;99271.65;137483;1273;22578;-85
2023/07/09 11:05:32;;;;;;;4.10;3.50;;;;;;;31.50;27.49;99272.39;137181;1274;22566;-84
2023/07/09 11:08:33;;;;;;;5.50;3.60;;;;;;;30.88;27.77;99277.66;136634;1273;22546;-84
2023/07/09 11:11:34;;;;;;;5.30;3.90;;;;;;;30.13;28.63;99275.04;136733;1273;22524;-84
2023/07/09 11:14:35;;;;;;;4.20;3.80;;;;;;;29.84;29.31;99277.87;137222;1273;23004;-84
2023/07/09 11:17:36;;;;;;;4.20;3.60;;;;;;;30.20;28.68;99272.11;137378;1273;22456;-86
2023/07/09 11:20:37;;;;;;;5.00;3.70;;;;;;;30.47;28.19;99267.94;137228;1273;22166;-82
2023/07/09 11:23:39;;;;;;;10.80;3.60;;;;;;;30.23;27.98;99276.77;137057;1273;22367;-85
2023/07/09 11:26:40;;;;;;;5.80;4.00;;;;;;;29.95;28.52;99267.49;137248;1273;22209;-84
2023/07/09 11:29:41;;;;;;;5.60;4.00;;;;;;;30.11;28.40;99264.23;137482;1273;22357;-82
2023/07/09 11:32:42;;;;;;;6.30;3.70;;;;;;;30.31;27.93;99264.41;137423;1273;22337;-84
2023/07/09 11:35:44;;;;;;;4.90;4.00;;;;;;;30.47;27.82;99267.72;137222;1273;22245;-85
2023/07/09 11:38:46;;;;;;;5.00;4.20;;;;;;;30.56;27.95;99256.92;136528;1274;22547;-84
2023/07/09 11:41:47;;;;;;;6.10;3.70;;;;;;;30.60;27.67;99253.98;136158;1273;25344;-84
2023/07/09 11:44:48;;;;;;;6.90;3.90;;;;;;;30.78;27.85;99253.74;137339;1273;22234;-85
2023/07/09 11:47:49;;;;;;;3.80;3.40;;;;;;;31.12;28.09;99250.46;137433;1273;22418;-86
2023/07/09 11:50:50;;;;;;;9.00;4.00;;;;;;;31.55;27.80;99250.26;137138;1273;23546;-85
2023/07/09 11:53:51;;;;;;;5.40;3.90;;;;;;;31.86;27.66;99246.04;137236;1273;22618;-85
2023/07/09 11:56:52;;;;;;;7.80;4.10;;;;;;;31.95;27.15;99247.73;137303;1273;22281;-84
2023/07/09 11:59:54;;;;;;;3.60;3.30;;;;;;;31.82;27.59;99242.38;136575;1273;22723;-83
2023/07/09 12:02:55;;;;;;;3.80;3.50;;;;;;;31.46;27.51;99245.16;137241;1273;24308;-85
2023/07/09 12:05:56;;;;;;;6.60;4.00;;;;;;;31.19;28.31;99244.64;137490;1273;22973;-85
2023/07/09 12:08:57;;;;;;;5.10;3.90;;;;;;;31.32;27.98;99249.18;137502;1273;22881;-84
2023/07/09 12:11:58;;;;;;;5.70;3.90;;;;;;;31.32;28.13;99246.84;137525;1273;22699;-85
2023/07/09 12:14:59;;;;;;;4.10;3.50;;;;;;;31.44;28.18;99241.66;137516;1273;22209;-85
2023/07/09 12:18:00;;;;;;;5.70;3.60;;;;;;;31.61;28.37;99234.95;137502;1273;22245;-86
2023/07/09 12:21:01;;;;;;;6.40;4.10;;;;;;;31.76;28.53;99226.92;137503;1273;22295;-85
2023/07/09 12:24:02;;;;;;;4.50;4.10;;;;;;;31.91;28.06;99229.70;137342;1273;22530;-86
2023/07/09 12:27:03;;;;;;;4.30;3.90;;;;;;;31.91;27.51;99233.99;137332;1273;22439;-86
2023/07/09 12:30:04;;;;;;;4.20;3.80;;;;;;;31.77;27.66;99224.15;137629;1273;22216;-86
2023/07/09 12:33:05;;;;;;;6.10;3.60;;;;;;;31.49;28.24;99219.80;137556;1273;22305;-84
2023/07/09 12:36:07;;;;;;;4.80;3.80;;;;;;;31.24;27.73;99229.94;137023;1273;22259;-85
2023/07/09 12:39:08;;;;;;;7.90;3.80;;;;;;;31.16;27.74;99221.08;137253;1273;22302;-84
2023/07/09 12:42:09;;;;;;;4.20;3.80;;;;;;;31.38;28.04;99216.71;137579;1273;22228;-85
2023/07/09 12:45:10;;;;;;;5.80;4.40;;;;;;;31.44;27.55;99219.23;137357;1273;22202;-84
2023/07/09 12:48:11;;;;;;;5.70;3.80;;;;;;;31.24;27.77;99216.24;137173;1266;22556;-84
2023/07/09 12:51:12;;;;;;;16.60;4.40;;;;;;;31.20;27.89;99212.95;136997;1273;22543;-83
2023/07/09 12:54:16;;;;;;;6.30;3.80;;;;;;;31.12;27.88;99211.80;137114;1270;22941;-85
2023/07/09 12:57:17;;;;;;;4.90;3.70;;;;;;;30.99;27.55;99205.64;137086;1273;22530;-84
2023/07/09 13:00:18;;;;;;;7.90;3.80;;;;;;;31.03;27.90;99212.73;136994;1273;22597;-82
2023/07/09 13:37:49;;;;;;;5.50;3.70;;;;;;;31.94;26.57;99201.00;131846;1305;544779;-83
2023/07/09 13:40:51;;;;;;;4.50;3.90;;;;;;;31.86;26.56;99201.10;134689;1287;22509;-81
2023/07/09 13:43:54;;;;;;;7.30;3.80;;;;;;;31.76;27.16;99202.34;135081;1282;22559;-85
2023/07/09 13:47:00;;;;;;;5.00;3.40;;;;;;;31.68;27.41;99199.59;136012;1275;22690;-84
2023/07/09 13:50:03;;;;;;;4.40;3.50;;;;;;;31.70;27.53;99197.64;135892;1272;282890;-85
2023/07/09 13:53:06;;;;;;;6.80;4.20;;;;;;;31.63;27.21;99203.55;136182;1272;22545;-86
2023/07/09 13:56:09;;;;;;;3.90;3.60;;;;;;;31.50;26.74;99201.52;136144;1273;22523;-85
2023/07/09 13:59:24;;;;;;;6.40;3.50;;;;;;;31.23;26.33;99195.30;136237;1273;22465;-85
2023/07/09 14:02:31;;;;;;;5.00;3.50;;;;;;;31.26;26.40;99192.95;135954;1273;25882;-84
2023/07/09 14:05:34;;;;;;;5.70;3.30;;;;;;;30.93;26.94;99196.31;136345;1272;22541;-83
2023/07/09 14:08:36;;;;;;;4.50;3.80;;;;;;;30.44;27.74;99191.59;136784;1272;22560;-83
2023/07/09 14:11:39;;;;;;;5.40;3.50;;;;;;;30.40;27.91;99186.14;136875;1272;22747;-84
2023/07/09 14:14:44;;;;;;;;;;;;;;;30.48;27.77;99182.73;136890;1273;22528;-83
2023/07/09 14:17:51;;;;;;;4.40;3.50;;;;;;;30.56;27.54;99184.55;136724;1272;22524;-82
2023/07/09 14:20:54;;;;;;;9.80;3.30;;;;;;;30.60;27.43;99187.88;137172;1272;22848;-82
2023/07/09 14:23:56;;;;;;;5.50;3.50;;;;;;;30.68;27.09;99187.59;136740;1272;22564;-83
2023/07/09 14:26:59;;;;;;;6.00;4.50;;;;;;;30.69;26.65;99188.05;136776;1273;22741;-83
2023/07/09 14:30:02;;;;;;;3.70;3.30;;;;;;;30.69;27.09;99184.10;136914;1272;22569;-83
2023/07/09 14:33:04;;;;;;;7.50;3.50;;;;;;;30.81;26.96;99189.23;136798;1272;22488;-81
2023/07/09 14:36:07;;;;;;;3.30;3.00;;;;;;;30.86;26.64;99189.42;136785;1273;22514;-84